If you wish to contribute or participate in the discussions about articles you are invited to join SKYbrary as a registered user

 Actions

Cazaux (BA 120) Air Base

From SKYbrary Wiki

LFBC
Airport
ICAO: LFBC
Summary
Name Cazaux (BA 120) Air Base
Region Europe
Territory France FR.gif
Location , Aquitaine
Serving Cazaux
Elevation 25.603 m
84 ft
84 ft25.603 m
Type medium airport
Coordinates 44° 32' 0.00" N, 1° 7' 30.00" W
Runways
Designator Length Width Surface ROPS
6/24 2408 m7,900.262 ft
45 m147.638 ft
ASP /


METAR
Observation LFBC 212330Z AUTO 36004KT CAVOK 11/10 Q1019 BECMG 4000 BR
Station Cazaux
Date/Time 21 May 2019 23:30:00
Wind direction 360°
Wind speed 04 kts
Lowest cloud amount clouds and visibility OK
Temperature 11°C
Dew point 10°C
Humidity 93%
QNH 1019 hPa
Weather condition n/a